メインページ
METAR-TAF:

METAR-TAF

空港 :

シンガポール・チャンギ国際空港

シンガポール, シンガポール

緯度: 01-22N, 経度: 103-59E, 海抜: 5m

現時点の気象観測

当レポートは10分前の00:00(UTC)に作成
の風 8kt、から西/南西の間で変化する
気温 28°C
湿度 84%
気圧 1008 hPa
視程10km以上
高度1800ftの雲はほとんどない
高度30000ftの千切れ雲あり

METAR: WSSS 170000Z 18008KT 170V250 9999 FEW018 BKN300 28/25 Q1008 NOSIG

時間: 08:10 (00:10 UTC)

予報

当レポートは1時間10分前の23:00(UTC)に作成
予報は17日の 00時(UTC)から 18日の 06時(UTC)まで有効
の風 10kt
視程10km以上
高度1800ftの雲はほとんどない, 積乱雲.
高度2000ftの雲は散在している

TAF: WSSS 162300Z 1700/1806 18010KT 9999 FEW018CB SCT020

4,000以上の空港の気象観測と天気予報(METAR報とTAF報)

利用可能な観測所は地図上に黄色い丸と赤い丸で示す。

丸の上にカーソルを重ねると観測所名を参照できる。

次にクリックすると気象観測と天気予報を参照できる。

マップの切り替え:黒色「×」印の緑ボタンをクリックして拡大、「-」印の緑ボタンをクリックして縮小、緑色の三角印をクリックして隣りの地図に切り替え


METAR-TAF: